sensor_id;sensor_type;location;lat;lon;timestamp;temperature;humidity
13589;DHT22;6865;52.552;13.434;2023-06-01T00:02:01;16.90;79.20
13589;DHT22;6865;52.552;13.434;2023-06-01T00:04:28;16.90;79.30
13589;DHT22;6865;52.552;13.434;2023-06-01T00:06:55;16.80;80.00
13589;DHT22;6865;52.552;13.434;2023-06-01T00:09:22;16.50;80.20
13589;DHT22;6865;52.552;13.434;2023-06-01T00:11:49;16.70;81.00
13589;DHT22;6865;52.552;13.434;2023-06-01T00:14:15;16.60;81.50
13589;DHT22;6865;52.552;13.434;2023-06-01T00:16:42;16.60;81.80
13589;DHT22;6865;52.552;13.434;2023-06-01T00:19:09;16.60;82.50
13589;DHT22;6865;52.552;13.434;2023-06-01T00:21:37;16.60;82.70
13589;DHT22;6865;52.552;13.434;2023-06-01T00:24:04;16.50;83.50
13589;DHT22;6865;52.552;13.434;2023-06-01T00:26:31;16.40;83.80
13589;DHT22;6865;52.552;13.434;2023-06-01T00:29:01;16.50;84.40
13589;DHT22;6865;52.552;13.434;2023-06-01T00:31:28;16.50;84.50
13589;DHT22;6865;52.552;13.434;2023-06-01T00:33:54;16.40;85.00
13589;DHT22;6865;52.552;13.434;2023-06-01T00:36:21;16.30;85.60
13589;DHT22;6865;52.552;13.434;2023-06-01T00:38:48;16.30;85.80
13589;DHT22;6865;52.552;13.434;2023-06-01T00:41:14;16.20;86.80
13589;DHT22;6865;52.552;13.434;2023-06-01T00:43:41;16.00;87.70
13589;DHT22;6865;52.552;13.434;2023-06-01T00:46:08;16.00;88.40
13589;DHT22;6865;52.552;13.434;2023-06-01T00:48:36;15.80;89.60
13589;DHT22;6865;52.552;13.434;2023-06-01T00:51:03;15.80;90.20
13589;DHT22;6865;52.552;13.434;2023-06-01T00:53:30;15.70;90.50
13589;DHT22;6865;52.552;13.434;2023-06-01T00:55:56;15.80;91.00
13589;DHT22;6865;52.552;13.434;2023-06-01T00:58:23;15.90;91.20
13589;DHT22;6865;52.552;13.434;2023-06-01T01:00:50;16.00;91.40
13589;DHT22;6865;52.552;13.434;2023-06-01T01:03:20;16.00;91.70
13589;DHT22;6865;52.552;13.434;2023-06-01T01:05:48;15.90;92.00
13589;DHT22;6865;52.552;13.434;2023-06-01T01:08:30;15.80;92.40
13589;DHT22;6865;52.552;13.434;2023-06-01T01:11:13;15.80;93.10
13589;DHT22;6865;52.552;13.434;2023-06-01T01:13:50;15.80;93.70
13589;DHT22;6865;52.552;13.434;2023-06-01T01:16:44;15.80;94.10
13589;DHT22;6865;52.552;13.434;2023-06-01T01:19:43;15.70;94.40
13589;DHT22;6865;52.552;13.434;2023-06-01T01:22:39;15.60;95.40
13589;DHT22;6865;52.552;13.434;2023-06-01T01:25:20;15.70;96.00
13589;DHT22;6865;52.552;13.434;2023-06-01T01:30:54;15.70;96.80
13589;DHT22;6865;52.552;13.434;2023-06-01T01:33:21;15.60;97.10
13589;DHT22;6865;52.552;13.434;2023-06-01T01:35:49;15.60;97.90
13589;DHT22;6865;52.552;13.434;2023-06-01T01:38:16;15.60;98.40
13589;DHT22;6865;52.552;13.434;2023-06-01T01:40:43;15.50;98.80
13589;DHT22;6865;52.552;13.434;2023-06-01T01:43:09;15.50;99.30
13589;DHT22;6865;52.552;13.434;2023-06-01T01:45:37;15.40;99.90
13589;DHT22;6865;52.552;13.434;2023-06-01T01:48:18;15.30;99.90
13589;DHT22;6865;52.552;13.434;2023-06-01T01:50:51;15.30;99.90
13589;DHT22;6865;52.552;13.434;2023-06-01T01:53:20;15.20;99.90
13589;DHT22;6865;52.552;13.434;2023-06-01T01:55:49;15.20;99.90
13589;DHT22;6865;52.552;13.434;2023-06-01T01:58:18;15.10;99.90
13589;DHT22;6865;52.552;13.434;2023-06-01T02:00:45;15.10;99.90
13589;DHT22;6865;52.552;13.434;2023-06-01T02:03:15;15.00;99.90
13589;DHT22;6865;52.552;13.434;2023-06-01T02:05:42;15.00;99.90
13589;DHT22;6865;52.552;13.434;2023-06-01T02:08:09;15.00;99.90
13589;DHT22;6865;52.552;13.434;2023-06-01T02:10:36;15.00;99.90
13589;DHT22;6865;52.552;13.434;2023-06-01T02:13:03;15.00;99.90
13589;DHT22;6865;52.552;13.434;2023-06-01T02:15:30;15.00;99.90
13589;DHT22;6865;52.552;13.434;2023-06-01T02:17:56;15.00;99.90
13589;DHT22;6865;52.552;13.434;2023-06-01T02:20:23;14.90;99.90
13589;DHT22;6865;52.552;13.434;2023-06-01T02:22:50;14.80;99.90
13589;DHT22;6865;52.552;13.434;2023-06-01T02:25:16;14.80;99.90
13589;DHT22;6865;52.552;13.434;2023-06-01T02:27:45;14.70;99.90
13589;DHT22;6865;52.552;13.434;2023-06-01T02:30:12;14.70;99.90
13589;DHT22;6865;52.552;13.434;2023-06-01T02:32:39;14.70;99.90
13589;DHT22;6865;52.552;13.434;2023-06-01T02:35:06;14.50;99.90
13589;DHT22;6865;52.552;13.434;2023-06-01T02:37:33;14.60;99.90
13589;DHT22;6865;52.552;13.434;2023-06-01T02:40:00;14.50;99.90
13589;DHT22;6865;52.552;13.434;2023-06-01T02:42:26;14.40;99.90
13589;DHT22;6865;52.552;13.434;2023-06-01T02:44:53;14.40;99.90
13589;DHT22;6865;52.552;13.434;2023-06-01T02:47:19;14.40;99.90
13589;DHT22;6865;52.552;13.434;2023-06-01T02:49:46;14.30;99.90
13589;DHT22;6865;52.552;13.434;2023-06-01T02:52:13;14.30;99.90
13589;DHT22;6865;52.552;13.434;2023-06-01T02:54:40;14.30;99.90
13589;DHT22;6865;52.552;13.434;2023-06-01T02:57:06;14.30;99.90
13589;DHT22;6865;52.552;13.434;2023-06-01T02:59:33;14.20;99.90
13589;DHT22;6865;52.552;13.434;2023-06-01T03:02:00;14.20;99.90
13589;DHT22;6865;52.552;13.434;2023-06-01T03:04:26;14.10;99.90
13589;DHT22;6865;52.552;13.434;2023-06-01T03:06:55;14.20;99.90
13589;DHT22;6865;52.552;13.434;2023-06-01T03:09:23;14.20;99.90
13589;DHT22;6865;52.552;13.434;2023-06-01T03:11:50;14.10;99.90
13589;DHT22;6865;52.552;13.434;2023-06-01T03:14:17;13.90;99.90
13589;DHT22;6865;52.552;13.434;2023-06-01T03:16:43;13.90;99.90
13589;DHT22;6865;52.552;13.434;2023-06-01T03:19:10;13.90;99.90
13589;DHT22;6865;52.552;13.434;2023-06-01T03:21:37;13.90;99.90
13589;DHT22;6865;52.552;13.434;2023-06-01T03:24:04;13.90;99.90
13589;DHT22;6865;52.552;13.434;2023-06-01T03:26:30;13.90;99.90
13589;DHT22;6865;52.552;13.434;2023-06-01T03:28:57;13.80;99.90
13589;DHT22;6865;52.552;13.434;2023-06-01T03:31:24;13.90;99.90
13589;DHT22;6865;52.552;13.434;2023-06-01T03:33:51;13.80;99.90
13589;DHT22;6865;52.552;13.434;2023-06-01T03:36:18;13.80;99.90
13589;DHT22;6865;52.552;13.434;2023-06-01T03:38:45;13.80;99.90
13589;DHT22;6865;52.552;13.434;2023-06-01T03:41:12;13.60;99.90
13589;DHT22;6865;52.552;13.434;2023-06-01T03:43:38;13.60;99.90
13589;DHT22;6865;52.552;13.434;2023-06-01T03:46:05;13.50;99.90
13589;DHT22;6865;52.552;13.434;2023-06-01T03:48:32;13.60;99.90
13589;DHT22;6865;52.552;13.434;2023-06-01T03:50:59;13.50;99.90
13589;DHT22;6865;52.552;13.434;2023-06-01T03:53:26;13.50;99.90
13589;DHT22;6865;52.552;13.434;2023-06-01T03:55:52;13.60;99.90
13589;DHT22;6865;52.552;13.434;2023-06-01T03:58:19;13.20;99.90
13589;DHT22;6865;52.552;13.434;2023-06-01T04:00:46;13.50;99.90
13589;DHT22;6865;52.552;13.434;2023-06-01T04:03:13;13.40;99.90
13589;DHT22;6865;52.552;13.434;2023-06-01T04:05:41;13.50;99.90
13589;DHT22;6865;52.552;13.434;2023-06-01T04:08:13;13.50;99.90
13589;DHT22;6865;52.552;13.434;2023-06-01T04:10:40;13.40;99.90
13589;DHT22;6865;52.552;13.434;2023-06-01T04:13:07;13.30;99.90
13589;DHT22;6865;52.552;13.434;2023-06-01T04:15:34;13.30;99.90
13589;DHT22;6865;52.552;13.434;2023-06-01T04:18:01;13.40;99.90
13589;DHT22;6865;52.552;13.434;2023-06-01T04:20:27;13.40;99.90
13589;DHT22;6865;52.552;13.434;2023-06-01T04:22:54;13.50;99.90
13589;DHT22;6865;52.552;13.434;2023-06-01T04:25:21;13.50;99.90
13589;DHT22;6865;52.552;13.434;2023-06-01T04:27:50;13.40;99.90
13589;DHT22;6865;52.552;13.434;2023-06-01T04:30:21;13.40;99.90
13589;DHT22;6865;52.552;13.434;2023-06-01T04:32:49;13.40;99.90
13589;DHT22;6865;52.552;13.434;2023-06-01T04:35:16;13.50;99.90
13589;DHT22;6865;52.552;13.434;2023-06-01T04:37:43;13.50;99.90
13589;DHT22;6865;52.552;13.434;2023-06-01T04:40:11;13.60;99.90
13589;DHT22;6865;52.552;13.434;2023-06-01T04:42:41;13.50;99.90
13589;DHT22;6865;52.552;13.434;2023-06-01T04:45:09;13.60;99.90
13589;DHT22;6865;52.552;13.434;2023-06-01T04:47:37;13.50;99.90
13589;DHT22;6865;52.552;13.434;2023-06-01T04:50:07;13.40;99.90
13589;DHT22;6865;52.552;13.434;2023-06-01T04:52:39;13.30;99.90
13589;DHT22;6865;52.552;13.434;2023-06-01T04:55:06;13.20;99.90
13589;DHT22;6865;52.552;13.434;2023-06-01T04:57:34;13.00;99.90
13589;DHT22;6865;52.552;13.434;2023-06-01T05:00:06;13.10;99.90
13589;DHT22;6865;52.552;13.434;2023-06-01T05:02:39;13.10;99.90
13589;DHT22;6865;52.552;13.434;2023-06-01T05:05:07;13.10;99.90
13589;DHT22;6865;52.552;13.434;2023-06-01T05:07:37;13.10;99.90
13589;DHT22;6865;52.552;13.434;2023-06-01T05:10:06;13.10;99.90
13589;DHT22;6865;52.552;13.434;2023-06-01T05:12:34;13.10;99.90
13589;DHT22;6865;52.552;13.434;2023-06-01T05:15:05;12.80;99.90
13589;DHT22;6865;52.552;13.434;2023-06-01T05:17:33;13.20;99.90
13589;DHT22;6865;52.552;13.434;2023-06-01T05:20:00;13.10;99.90
13589;DHT22;6865;52.552;13.434;2023-06-01T05:22:27;13.00;99.90
13589;DHT22;6865;52.552;13.434;2023-06-01T05:24:53;12.90;99.90
13589;DHT22;6865;52.552;13.434;2023-06-01T05:27:20;13.00;99.90
13589;DHT22;6865;52.552;13.434;2023-06-01T05:29:47;13.00;99.90
13589;DHT22;6865;52.552;13.434;2023-06-01T05:32:13;13.10;99.90
13589;DHT22;6865;52.552;13.434;2023-06-01T05:34:40;13.10;99.90
13589;DHT22;6865;52.552;13.434;2023-06-01T05:37:06;13.00;99.90
13589;DHT22;6865;52.552;13.434;2023-06-01T05:39:33;12.90;99.90
13589;DHT22;6865;52.552;13.434;2023-06-01T05:42:00;13.00;99.90
13589;DHT22;6865;52.552;13.434;2023-06-01T05:44:27;13.00;99.90
13589;DHT22;6865;52.552;13.434;2023-06-01T05:46:53;13.00;99.90
13589;DHT22;6865;52.552;13.434;2023-06-01T05:49:20;13.10;99.90
13589;DHT22;6865;52.552;13.434;2023-06-01T05:51:47;13.20;99.90
13589;DHT22;6865;52.552;13.434;2023-06-01T05:54:14;13.30;99.90
13589;DHT22;6865;52.552;13.434;2023-06-01T05:56:41;13.40;99.90
13589;DHT22;6865;52.552;13.434;2023-06-01T05:59:07;13.40;99.90
13589;DHT22;6865;52.552;13.434;2023-06-01T06:01:34;13.50;99.90
13589;DHT22;6865;52.552;13.434;2023-06-01T06:04:02;13.60;99.90
13589;DHT22;6865;52.552;13.434;2023-06-01T06:06:29;13.60;99.90
13589;DHT22;6865;52.552;13.434;2023-06-01T06:08:58;13.50;99.90
13589;DHT22;6865;52.552;13.434;2023-06-01T06:11:25;13.50;99.90
13589;DHT22;6865;52.552;13.434;2023-06-01T06:13:52;13.60;99.90
13589;DHT22;6865;52.552;13.434;2023-06-01T06:16:19;13.50;99.90
13589;DHT22;6865;52.552;13.434;2023-06-01T06:18:46;13.50;99.90
13589;DHT22;6865;52.552;13.434;2023-06-01T06:21:13;13.60;99.90
13589;DHT22;6865;52.552;13.434;2023-06-01T06:23:43;13.70;99.90
13589;DHT22;6865;52.552;13.434;2023-06-01T06:26:11;13.60;99.90
13589;DHT22;6865;52.552;13.434;2023-06-01T06:28:38;13.80;99.90
13589;DHT22;6865;52.552;13.434;2023-06-01T06:31:04;14.00;99.90
13589;DHT22;6865;52.552;13.434;2023-06-01T06:33:31;14.00;99.90
13589;DHT22;6865;52.552;13.434;2023-06-01T06:35:57;14.10;99.90
13589;DHT22;6865;52.552;13.434;2023-06-01T06:38:24;13.90;99.90
13589;DHT22;6865;52.552;13.434;2023-06-01T06:40:51;13.90;99.90
13589;DHT22;6865;52.552;13.434;2023-06-01T06:43:18;14.00;99.90
13589;DHT22;6865;52.552;13.434;2023-06-01T06:45:44;14.20;99.90
13589;DHT22;6865;52.552;13.434;2023-06-01T06:48:11;14.20;99.90
13589;DHT22;6865;52.552;13.434;2023-06-01T06:50:38;14.00;99.90
13589;DHT22;6865;52.552;13.434;2023-06-01T06:53:08;14.20;99.90
13589;DHT22;6865;52.552;13.434;2023-06-01T06:55:34;14.20;99.90
13589;DHT22;6865;52.552;13.434;2023-06-01T06:58:01;14.50;99.90
13589;DHT22;6865;52.552;13.434;2023-06-01T07:00:28;14.70;99.90
13589;DHT22;6865;52.552;13.434;2023-06-01T07:02:55;14.80;99.90
13589;DHT22;6865;52.552;13.434;2023-06-01T07:05:22;14.70;99.90
13589;DHT22;6865;52.552;13.434;2023-06-01T07:07:48;14.70;99.90
13589;DHT22;6865;52.552;13.434;2023-06-01T07:10:15;14.90;99.90
13589;DHT22;6865;52.552;13.434;2023-06-01T07:12:42;15.00;99.90
13589;DHT22;6865;52.552;13.434;2023-06-01T07:15:09;15.20;99.90
13589;DHT22;6865;52.552;13.434;2023-06-01T07:17:36;15.20;99.90
13589;DHT22;6865;52.552;13.434;2023-06-01T07:20:03;15.30;99.90
13589;DHT22;6865;52.552;13.434;2023-06-01T07:22:34;15.20;99.90
13589;DHT22;6865;52.552;13.434;2023-06-01T07:25:00;15.20;99.90
13589;DHT22;6865;52.552;13.434;2023-06-01T07:27:27;15.40;99.90
13589;DHT22;6865;52.552;13.434;2023-06-01T07:29:54;15.60;99.90
13589;DHT22;6865;52.552;13.434;2023-06-01T07:32:23;15.80;99.90
13589;DHT22;6865;52.552;13.434;2023-06-01T07:34:51;15.60;99.90
13589;DHT22;6865;52.552;13.434;2023-06-01T07:37:17;15.70;99.90
13589;DHT22;6865;52.552;13.434;2023-06-01T07:39:48;15.80;99.90
13589;DHT22;6865;52.552;13.434;2023-06-01T07:42:15;15.90;99.90
13589;DHT22;6865;52.552;13.434;2023-06-01T07:44:42;16.00;99.90
13589;DHT22;6865;52.552;13.434;2023-06-01T07:47:09;16.00;99.90
13589;DHT22;6865;52.552;13.434;2023-06-01T07:49:36;15.90;99.90
13589;DHT22;6865;52.552;13.434;2023-06-01T07:52:06;16.00;99.90
13589;DHT22;6865;52.552;13.434;2023-06-01T07:54:34;16.40;99.90
13589;DHT22;6865;52.552;13.434;2023-06-01T07:57:03;16.40;99.90
13589;DHT22;6865;52.552;13.434;2023-06-01T07:59:33;16.60;99.90
13589;DHT22;6865;52.552;13.434;2023-06-01T08:02:00;16.70;99.90
13589;DHT22;6865;52.552;13.434;2023-06-01T08:04:27;16.50;99.90
13589;DHT22;6865;52.552;13.434;2023-06-01T08:07:00;16.90;99.90
13589;DHT22;6865;52.552;13.434;2023-06-01T08:09:29;16.90;99.90
13589;DHT22;6865;52.552;13.434;2023-06-01T08:11:57;17.30;99.90
13589;DHT22;6865;52.552;13.434;2023-06-01T08:14:24;16.70;99.90
13589;DHT22;6865;52.552;13.434;2023-06-01T08:16:50;16.60;99.90
13589;DHT22;6865;52.552;13.434;2023-06-01T08:19:20;16.70;99.90
13589;DHT22;6865;52.552;13.434;2023-06-01T08:21:47;16.70;99.90
13589;DHT22;6865;52.552;13.434;2023-06-01T08:24:14;16.40;99.90
13589;DHT22;6865;52.552;13.434;2023-06-01T08:26:41;16.40;99.90
13589;DHT22;6865;52.552;13.434;2023-06-01T08:29:08;16.40;99.90
13589;DHT22;6865;52.552;13.434;2023-06-01T08:31:35;16.40;99.90
13589;DHT22;6865;52.552;13.434;2023-06-01T08:34:03;16.40;99.90
13589;DHT22;6865;52.552;13.434;2023-06-01T08:36:30;16.40;99.90
13589;DHT22;6865;52.552;13.434;2023-06-01T08:38:57;16.40;99.90
13589;DHT22;6865;52.552;13.434;2023-06-01T08:41:40;16.50;99.90
13589;DHT22;6865;52.552;13.434;2023-06-01T08:44:08;16.50;99.90
13589;DHT22;6865;52.552;13.434;2023-06-01T08:46:38;16.60;99.90
13589;DHT22;6865;52.552;13.434;2023-06-01T08:49:07;16.70;99.90
13589;DHT22;6865;52.552;13.434;2023-06-01T08:51:38;16.80;99.90
13589;DHT22;6865;52.552;13.434;2023-06-01T08:54:08;16.80;99.90
13589;DHT22;6865;52.552;13.434;2023-06-01T08:56:37;16.70;99.90
13589;DHT22;6865;52.552;13.434;2023-06-01T08:59:11;16.90;99.90
13589;DHT22;6865;52.552;13.434;2023-06-01T09:01:38;17.00;99.90
13589;DHT22;6865;52.552;13.434;2023-06-01T09:04:05;17.20;99.90
13589;DHT22;6865;52.552;13.434;2023-06-01T09:06:31;17.30;99.90
13589;DHT22;6865;52.552;13.434;2023-06-01T09:08:59;17.30;99.80
13589;DHT22;6865;52.552;13.434;2023-06-01T09:11:26;17.30;99.90
13589;DHT22;6865;52.552;13.434;2023-06-01T09:13:53;17.20;99.90
13589;DHT22;6865;52.552;13.434;2023-06-01T09:16:20;17.30;99.90
13589;DHT22;6865;52.552;13.434;2023-06-01T09:18:53;17.40;99.90
13589;DHT22;6865;52.552;13.434;2023-06-01T09:21:20;17.50;99.50
13589;DHT22;6865;52.552;13.434;2023-06-01T09:23:47;17.40;99.10
13589;DHT22;6865;52.552;13.434;2023-06-01T09:26:15;17.40;99.30
13589;DHT22;6865;52.552;13.434;2023-06-01T09:28:57;17.60;99.10
13589;DHT22;6865;52.552;13.434;2023-06-01T09:31:38;17.70;98.60
13589;DHT22;6865;52.552;13.434;2023-06-01T09:34:10;17.80;98.60
13589;DHT22;6865;52.552;13.434;2023-06-01T09:36:52;18.00;98.60
13589;DHT22;6865;52.552;13.434;2023-06-01T09:39:21;18.00;98.30
13589;DHT22;6865;52.552;13.434;2023-06-01T09:41:58;18.20;98.20
13589;DHT22;6865;52.552;13.434;2023-06-01T09:44:33;18.40;97.20
13589;DHT22;6865;52.552;13.434;2023-06-01T09:47:07;18.40;97.10
13589;DHT22;6865;52.552;13.434;2023-06-01T09:49:43;18.40;97.00
13589;DHT22;6865;52.552;13.434;2023-06-01T09:52:12;18.40;97.00
13589;DHT22;6865;52.552;13.434;2023-06-01T09:54:47;18.50;96.80
13589;DHT22;6865;52.552;13.434;2023-06-01T09:57:21;18.50;96.30
13589;DHT22;6865;52.552;13.434;2023-06-01T09:59:48;18.50;96.90
13589;DHT22;6865;52.552;13.434;2023-06-01T10:02:17;18.60;96.50
13589;DHT22;6865;52.552;13.434;2023-06-01T10:04:48;18.60;96.30
13589;DHT22;6865;52.552;13.434;2023-06-01T10:07:16;18.60;95.80
13589;DHT22;6865;52.552;13.434;2023-06-01T10:09:45;18.60;95.40
13589;DHT22;6865;52.552;13.434;2023-06-01T10:12:12;18.60;94.60
13589;DHT22;6865;52.552;13.434;2023-06-01T10:14:39;18.50;94.70
13589;DHT22;6865;52.552;13.434;2023-06-01T10:17:07;18.80;94.80
13589;DHT22;6865;52.552;13.434;2023-06-01T10:19:36;18.80;94.50
13589;DHT22;6865;52.552;13.434;2023-06-01T10:22:06;18.90;94.70
13589;DHT22;6865;52.552;13.434;2023-06-01T10:24:35;19.00;94.70
13589;DHT22;6865;52.552;13.434;2023-06-01T10:27:16;19.10;94.10
13589;DHT22;6865;52.552;13.434;2023-06-01T10:29:47;19.20;93.90
13589;DHT22;6865;52.552;13.434;2023-06-01T10:32:43;19.20;94.10
13589;DHT22;6865;52.552;13.434;2023-06-01T10:40:40;19.20;93.10
13589;DHT22;6865;52.552;13.434;2023-06-01T10:43:08;19.30;93.50
13589;DHT22;6865;52.552;13.434;2023-06-01T10:45:54;19.40;93.60
13589;DHT22;6865;52.552;13.434;2023-06-01T10:48:54;19.50;93.60
13589;DHT22;6865;52.552;13.434;2023-06-01T10:51:23;19.60;93.20
13589;DHT22;6865;52.552;13.434;2023-06-01T10:53:54;19.40;92.40
13589;DHT22;6865;52.552;13.434;2023-06-01T11:01:45;19.90;90.60
13589;DHT22;6865;52.552;13.434;2023-06-01T11:04:13;19.90;90.50
13589;DHT22;6865;52.552;13.434;2023-06-01T11:06:41;20.00;90.80
13589;DHT22;6865;52.552;13.434;2023-06-01T11:09:10;20.10;90.70
13589;DHT22;6865;52.552;13.434;2023-06-01T11:14:23;20.10;89.70
13589;DHT22;6865;52.552;13.434;2023-06-01T11:16:53;20.00;88.80
13589;DHT22;6865;52.552;13.434;2023-06-01T11:19:25;20.00;88.70
13589;DHT22;6865;52.552;13.434;2023-06-01T11:21:57;20.10;89.10
13589;DHT22;6865;52.552;13.434;2023-06-01T11:24:36;20.00;89.10
13589;DHT22;6865;52.552;13.434;2023-06-01T11:27:08;20.30;89.20
13589;DHT22;6865;52.552;13.434;2023-06-01T11:29:36;20.30;89.80
13589;DHT22;6865;52.552;13.434;2023-06-01T11:32:05;20.30;89.70
13589;DHT22;6865;52.552;13.434;2023-06-01T11:34:33;20.20;89.40
13589;DHT22;6865;52.552;13.434;2023-06-01T11:37:00;20.40;88.90
13589;DHT22;6865;52.552;13.434;2023-06-01T11:39:28;20.50;88.40
13589;DHT22;6865;52.552;13.434;2023-06-01T11:42:06;20.40;88.80
13589;DHT22;6865;52.552;13.434;2023-06-01T11:44:35;20.40;88.00
13589;DHT22;6865;52.552;13.434;2023-06-01T11:47:02;20.30;87.50
13589;DHT22;6865;52.552;13.434;2023-06-01T11:49:31;20.40;87.70
13589;DHT22;6865;52.552;13.434;2023-06-01T11:51:57;20.40;87.20
13589;DHT22;6865;52.552;13.434;2023-06-01T11:54:27;20.50;86.70
13589;DHT22;6865;52.552;13.434;2023-06-01T11:56:56;20.40;86.80
13589;DHT22;6865;52.552;13.434;2023-06-01T11:59:24;20.50;87.20
13589;DHT22;6865;52.552;13.434;2023-06-01T12:01:51;20.60;87.30
13589;DHT22;6865;52.552;13.434;2023-06-01T12:04:22;20.50;86.30
13589;DHT22;6865;52.552;13.434;2023-06-01T12:06:50;20.70;86.10
13589;DHT22;6865;52.552;13.434;2023-06-01T12:09:18;20.80;85.80
13589;DHT22;6865;52.552;13.434;2023-06-01T12:11:46;21.00;84.70
13589;DHT22;6865;52.552;13.434;2023-06-01T12:14:15;21.00;85.00
13589;DHT22;6865;52.552;13.434;2023-06-01T12:16:58;21.10;84.90
13589;DHT22;6865;52.552;13.434;2023-06-01T12:19:26;21.10;84.10
13589;DHT22;6865;52.552;13.434;2023-06-01T12:21:55;21.10;83.30
13589;DHT22;6865;52.552;13.434;2023-06-01T12:24:26;21.30;83.20
13589;DHT22;6865;52.552;13.434;2023-06-01T12:26:56;21.30;83.40
13589;DHT22;6865;52.552;13.434;2023-06-01T12:29:40;21.40;83.80
13589;DHT22;6865;52.552;13.434;2023-06-01T12:32:09;21.40;83.20
13589;DHT22;6865;52.552;13.434;2023-06-01T12:34:37;21.50;83.30
13589;DHT22;6865;52.552;13.434;2023-06-01T12:37:17;21.50;83.40
13589;DHT22;6865;52.552;13.434;2023-06-01T12:39:54;21.50;82.70
13589;DHT22;6865;52.552;13.434;2023-06-01T12:42:35;21.30;82.50
13589;DHT22;6865;52.552;13.434;2023-06-01T12:45:04;21.10;82.70
13589;DHT22;6865;52.552;13.434;2023-06-01T12:47:38;21.30;83.00
13589;DHT22;6865;52.552;13.434;2023-06-01T12:50:07;21.50;83.40
13589;DHT22;6865;52.552;13.434;2023-06-01T12:52:35;21.50;82.80
13589;DHT22;6865;52.552;13.434;2023-06-01T12:55:03;21.60;81.30
13589;DHT22;6865;52.552;13.434;2023-06-01T12:57:31;21.60;81.30
13589;DHT22;6865;52.552;13.434;2023-06-01T12:59:58;21.60;81.80
13589;DHT22;6865;52.552;13.434;2023-06-01T13:02:25;21.50;81.40
13589;DHT22;6865;52.552;13.434;2023-06-01T13:04:53;21.40;82.00
13589;DHT22;6865;52.552;13.434;2023-06-01T13:07:20;21.50;82.10
13589;DHT22;6865;52.552;13.434;2023-06-01T13:09:50;21.40;81.90
13589;DHT22;6865;52.552;13.434;2023-06-01T13:12:16;21.40;82.30
13589;DHT22;6865;52.552;13.434;2023-06-01T13:14:45;21.50;82.20
13589;DHT22;6865;52.552;13.434;2023-06-01T13:17:12;21.40;81.90
13589;DHT22;6865;52.552;13.434;2023-06-01T13:19:38;21.60;82.00
13589;DHT22;6865;52.552;13.434;2023-06-01T13:22:07;21.70;81.20
13589;DHT22;6865;52.552;13.434;2023-06-01T13:24:34;21.80;80.90
13589;DHT22;6865;52.552;13.434;2023-06-01T13:27:19;22.00;80.50
13589;DHT22;6865;52.552;13.434;2023-06-01T13:29:45;22.00;79.10
13589;DHT22;6865;52.552;13.434;2023-06-01T13:32:12;22.10;79.60
13589;DHT22;6865;52.552;13.434;2023-06-01T13:34:39;22.10;78.80
13589;DHT22;6865;52.552;13.434;2023-06-01T13:37:07;22.00;79.00
13589;DHT22;6865;52.552;13.434;2023-06-01T13:39:33;22.00;79.10
13589;DHT22;6865;52.552;13.434;2023-06-01T13:42:00;22.00;79.00
13589;DHT22;6865;52.552;13.434;2023-06-01T13:44:27;22.00;78.60
13589;DHT22;6865;52.552;13.434;2023-06-01T13:46:54;21.90;78.40
13589;DHT22;6865;52.552;13.434;2023-06-01T13:49:22;22.20;78.80
13589;DHT22;6865;52.552;13.434;2023-06-01T13:51:49;22.10;78.30
13589;DHT22;6865;52.552;13.434;2023-06-01T13:54:16;21.90;79.30
13589;DHT22;6865;52.552;13.434;2023-06-01T13:56:43;22.20;78.70
13589;DHT22;6865;52.552;13.434;2023-06-01T13:59:10;22.10;78.70
13589;DHT22;6865;52.552;13.434;2023-06-01T14:01:37;22.20;79.20
13589;DHT22;6865;52.552;13.434;2023-06-01T14:04:03;22.10;79.40
13589;DHT22;6865;52.552;13.434;2023-06-01T14:06:30;22.00;79.70
13589;DHT22;6865;52.552;13.434;2023-06-01T14:08:58;22.00;80.00
13589;DHT22;6865;52.552;13.434;2023-06-01T14:11:25;22.10;80.10
13589;DHT22;6865;52.552;13.434;2023-06-01T14:13:56;22.20;78.80
13589;DHT22;6865;52.552;13.434;2023-06-01T14:16:23;22.40;78.60
13589;DHT22;6865;52.552;13.434;2023-06-01T14:18:49;22.50;78.20
13589;DHT22;6865;52.552;13.434;2023-06-01T14:21:16;22.60;77.40
13589;DHT22;6865;52.552;13.434;2023-06-01T14:23:43;22.50;76.20
13589;DHT22;6865;52.552;13.434;2023-06-01T14:26:11;22.50;76.90
13589;DHT22;6865;52.552;13.434;2023-06-01T14:28:37;22.40;78.00
13589;DHT22;6865;52.552;13.434;2023-06-01T14:31:04;22.30;76.70
13589;DHT22;6865;52.552;13.434;2023-06-01T14:33:31;22.30;76.60
13589;DHT22;6865;52.552;13.434;2023-06-01T14:35:58;22.30;75.60
13589;DHT22;6865;52.552;13.434;2023-06-01T14:38:25;22.40;75.10
13589;DHT22;6865;52.552;13.434;2023-06-01T14:40:51;22.40;75.50
13589;DHT22;6865;52.552;13.434;2023-06-01T14:43:18;22.40;75.70
13589;DHT22;6865;52.552;13.434;2023-06-01T14:45:45;22.40;75.00
13589;DHT22;6865;52.552;13.434;2023-06-01T14:48:11;22.30;74.80
13589;DHT22;6865;52.552;13.434;2023-06-01T14:50:38;22.30;75.20
13589;DHT22;6865;52.552;13.434;2023-06-01T14:53:05;22.30;74.30
13589;DHT22;6865;52.552;13.434;2023-06-01T14:55:31;22.20;75.00
13589;DHT22;6865;52.552;13.434;2023-06-01T14:57:58;22.20;75.00
13589;DHT22;6865;52.552;13.434;2023-06-01T15:00:25;22.20;74.90
13589;DHT22;6865;52.552;13.434;2023-06-01T15:02:51;22.20;75.10
13589;DHT22;6865;52.552;13.434;2023-06-01T15:05:18;22.20;74.40
13589;DHT22;6865;52.552;13.434;2023-06-01T15:07:45;22.20;74.40
13589;DHT22;6865;52.552;13.434;2023-06-01T15:10:12;22.40;74.10
13589;DHT22;6865;52.552;13.434;2023-06-01T15:12:39;22.30;74.30
13589;DHT22;6865;52.552;13.434;2023-06-01T15:15:06;22.40;74.00
13589;DHT22;6865;52.552;13.434;2023-06-01T15:17:33;22.30;73.90
13589;DHT22;6865;52.552;13.434;2023-06-01T15:20:00;22.30;73.90
13589;DHT22;6865;52.552;13.434;2023-06-01T15:22:26;22.30;74.30
13589;DHT22;6865;52.552;13.434;2023-06-01T15:24:53;22.30;73.80
13589;DHT22;6865;52.552;13.434;2023-06-01T15:27:20;22.20;73.50
13589;DHT22;6865;52.552;13.434;2023-06-01T15:29:47;22.00;73.70
13589;DHT22;6865;52.552;13.434;2023-06-01T15:32:13;22.00;73.70
13589;DHT22;6865;52.552;13.434;2023-06-01T15:34:40;21.90;73.30
13589;DHT22;6865;52.552;13.434;2023-06-01T15:37:09;22.00;72.50
13589;DHT22;6865;52.552;13.434;2023-06-01T15:39:36;21.90;73.00
13589;DHT22;6865;52.552;13.434;2023-06-01T15:42:05;21.90;72.80
13589;DHT22;6865;52.552;13.434;2023-06-01T15:44:32;21.80;70.70
13589;DHT22;6865;52.552;13.434;2023-06-01T15:46:59;21.80;70.00
13589;DHT22;6865;52.552;13.434;2023-06-01T15:49:28;21.70;70.80
13589;DHT22;6865;52.552;13.434;2023-06-01T15:51:58;21.60;71.10
13589;DHT22;6865;52.552;13.434;2023-06-01T15:54:25;21.60;71.00
13589;DHT22;6865;52.552;13.434;2023-06-01T15:56:51;21.60;70.20